Time;durP1;ratioP1;P1;durP2;ratioP2;P2;SDS_P1;SDS_P2;PMS_P1;PMS_P2;Temp;Humidity;BMP_temperature;BMP_pressure;BME280_temperature;BME280_humidity;BME280_pressure;Samples;Min_cycle;Max_cycle;Signal;HPM_P1;HPM_P2
2022/03/18 00:00:47;;;;;;;95.25;39.90;;;;;;;6.17;86.23;93682.63;5025532;28;20405;-89
2022/03/18 00:03:28;;;;;;;95.18;40.42;;;;;;;6.37;85.93;93709.06;5019861;28;20067;-89
2022/03/18 00:06:17;;;;;;;86.90;39.85;;;;;;;6.21;86.35;93687.16;5038089;28;20064;-90
2022/03/18 00:08:51;;;;;;;93.18;40.78;;;;;;;6.22;86.46;93690.53;5035630;28;20044;-89
2022/03/18 00:11:34;;;;;;;84.32;38.22;;;;;;;6.18;86.40;93679.78;5037005;28;20471;-89
2022/03/18 00:14:48;;;;;;;90.68;40.13;;;;;;;6.56;86.44;93742.72;5026187;28;20513;-89
2022/03/18 00:17:39;;;;;;;79.60;37.97;;;;;;;6.15;86.56;93680.25;5038336;28;20508;-89
2022/03/18 00:20:44;;;;;;;83.95;40.25;;;;;;;6.15;86.34;93679.47;5041858;28;20036;-89
2022/03/18 00:23:27;;;;;;;;;;;;;;;;;;;;;
2022/03/18 00:26:09;;;;;;;94.50;42.38;;;;;;;6.37;86.81;93718.66;5067412;28;20045;-89
2022/03/18 00:29:06;;;;;;;85.20;39.67;;;;;;;6.52;86.65;93736.38;5038785;28;20041;-91
2022/03/18 00:31:45;;;;;;;;;;;;;;;;;;;;;
2022/03/18 00:34:30;;;;;;;94.65;40.30;;;;;;;6.26;86.80;93704.66;5039065;28;20105;-89
2022/03/18 00:37:21;;;;;;;87.00;38.60;;;;;;;6.12;86.80;93679.91;5071690;28;20128;-89
2022/03/18 00:40:13;;;;;;;79.10;38.75;;;;;;;6.35;87.07;93716.28;5046449;28;20052;-89
2022/03/18 00:42:57;;;;;;;82.38;39.13;;;;;;;6.12;86.81;93675.50;5051801;28;20095;-89
2022/03/18 00:45:36;;;;;;;97.47;40.85;;;;;;;6.30;86.92;93700.56;5071219;28;20040;-89
2022/03/18 00:54:16;;;;;;;88.82;40.25;;;;;;;6.10;86.50;93661.16;5058057;28;20102;-89
2022/03/18 00:57:03;;;;;;;;;;;;;;;;;;;;;
2022/03/18 00:59:34;;;;;;;90.65;40.60;;;;;;;6.12;86.85;93669.53;5055315;28;20044;-89
2022/03/18 01:02:12;;;;;;;93.30;40.90;;;;;;;6.28;87.17;93694.03;5024332;28;20092;-89
2022/03/18 01:05:00;;;;;;;91.13;40.30;;;;;;;6.22;87.07;93686.13;5020842;28;20037;-89
2022/03/18 01:08:01;;;;;;;;;;;;;;;;;;;;;
2022/03/18 01:10:48;;;;;;;93.05;38.55;;;;;;;6.22;87.24;93687.94;5022810;28;20148;-89
2022/03/18 01:13:35;;;;;;;89.30;38.78;;;;;;;6.09;87.15;93667.38;5031359;28;20068;-89
2022/03/18 01:16:28;;;;;;;90.47;40.13;;;;;;;6.25;87.63;93690.06;5038177;28;20569;-89
2022/03/18 01:19:22;;;;;;;90.72;37.92;;;;;;;6.11;87.45;93667.97;5019764;28;20469;-89
2022/03/18 01:22:18;;;;;;;82.80;38.45;;;;;;;6.05;87.30;93647.03;5024294;28;20044;-89
2022/03/18 01:25:16;;;;;;;93.93;38.60;;;;;;;6.03;87.43;93646.50;5054856;28;20056;-90
2022/03/18 01:31:01;;;;;;;;;;;;;;;;;;;;;
2022/03/18 01:33:46;;;;;;;91.25;38.17;;;;;;;6.29;87.24;93691.19;5020301;28;20034;-89
2022/03/18 01:36:17;;;;;;;81.28;37.30;;;;;;;6.20;87.32;93684.78;5017413;28;20042;-89
2022/03/18 01:39:01;;;;;;;87.70;38.03;;;;;;;6.08;87.36;93663.19;5018770;28;20025;-90
2022/03/18 01:41:34;;;;;;;92.83;38.87;;;;;;;6.45;87.46;93716.47;5017266;28;20040;-88
2022/03/18 01:45:06;;;;;;;85.90;37.45;;;;;;;6.33;87.21;93691.53;5002874;28;20478;-90
2022/03/18 01:47:44;;;;;;;;;;;;;;;;;;;;;
2022/03/18 01:50:33;;;;;;;;;;;;;;;;;;;;;
2022/03/18 01:53:28;;;;;;;90.03;39.60;;;;;;;6.04;87.70;93647.28;5034024;28;20041;-89
2022/03/18 01:56:18;;;;;;;85.22;38.25;;;;;;;6.11;87.35;93662.75;5018951;28;20048;-90
2022/03/18 01:58:57;;;;;;;84.68;38.05;;;;;;;6.29;87.26;93691.19;5003943;28;20038;-90
2022/03/18 02:01:49;;;;;;;;;;;;;;;;;;;;;
2022/03/18 02:04:27;;;;;;;89.47;38.47;;;;;;;6.05;87.37;93654.84;5017176;28;20073;-90
2022/03/18 02:07:16;;;;;;;93.72;39.55;;;;;;;6.22;87.33;93674.94;5035442;28;20056;-90
2022/03/18 02:10:02;;;;;;;85.18;37.08;;;;;;;6.04;87.36;93652.47;5037090;28;20033;-91
2022/03/18 02:12:48;;;;;;;;;;;;;;;;;;;;;
2022/03/18 02:15:46;;;;;;;79.93;37.22;;;;;;;6.08;87.70;93648.41;5072656;28;20047;-90
2022/03/18 02:18:32;;;;;;;;;;;;;;;;;;;;;
2022/03/18 02:21:04;;;;;;;81.10;36.33;;;;;;;6.08;87.48;93658.81;5038648;28;20037;-89
2022/03/18 02:23:45;;;;;;;82.97;37.65;;;;;;;6.02;87.65;93647.50;5036931;28;20091;-89
2022/03/18 02:26:34;;;;;;;87.32;38.40;;;;;;;6.03;87.48;93651.69;5038557;28;20040;-89
2022/03/18 02:29:36;;;;;;;;;;;;;;;;;;;;;
2022/03/18 02:32:52;;;;;;;89.18;38.58;;;;;;;5.99;87.50;93652.34;5036544;28;20048;-89
2022/03/18 02:35:56;;;;;;;;;;;;;;;;;;;;;
2022/03/18 02:38:37;;;;;;;77.50;36.75;;;;;;;6.00;87.13;93646.94;5036515;28;20080;-89
2022/03/18 02:41:07;;;;;;;85.15;37.67;;;;;;;5.96;87.36;93651.00;5022010;28;20041;-89
2022/03/18 02:44:00;;;;;;;79.50;37.45;;;;;;;6.33;87.36;93701.94;5056884;28;20086;-90
2022/03/18 02:46:54;;;;;;;81.68;36.65;;;;;;;6.11;87.63;93673.16;5023916;28;20098;-89
2022/03/18 02:49:25;;;;;;;82.88;36.95;;;;;;;5.99;87.54;93660.97;5034940;28;20087;-89
2022/03/18 02:52:14;;;;;;;75.90;36.55;;;;;;;5.96;87.52;93651.00;5057894;28;20033;-89
2022/03/18 02:55:04;;;;;;;;;;;;;;;;;;;;;
2022/03/18 02:57:59;;;;;;;82.28;37.15;;;;;;;6.27;87.23;93706.25;5053623;28;20185;-90
2022/03/18 03:01:17;;;;;;;81.35;36.65;;;;;;;6.04;87.48;93674.06;5045620;28;20064;-89
2022/03/18 03:04:20;;;;;;;81.88;37.10;;;;;;;6.11;87.39;93686.94;5052634;28;20059;-90
2022/03/18 03:10:29;;;;;;;77.20;36.13;;;;;;;6.21;87.99;93699.34;5059984;28;20046;-89
2022/03/18 03:13:26;;;;;;;73.38;36.05;;;;;;;5.97;87.72;93662.22;5011785;28;20052;-89
2022/03/18 03:16:31;;;;;;;;;;;;;;;;;;;;;
2022/03/18 03:19:17;;;;;;;79.20;34.60;;;;;;;6.08;88.03;93687.41;5072202;28;19942;-89
2022/03/18 03:21:56;;;;;;;82.47;35.97;;;;;;;5.95;88.07;93672.84;5045151;28;20044;-89
2022/03/18 03:25:04;;;;;;;87.15;36.85;;;;;;;5.89;88.33;93665.91;5040470;28;20040;-89
2022/03/18 03:27:50;;;;;;;;;;;;;;;;;;;;;
2022/03/18 03:30:44;;;;;;;81.20;36.47;;;;;;;6.16;88.32;93712.25;5057887;28;20131;-89
2022/03/18 03:33:37;;;;;;;;;;;;;;;;;;;;;
2022/03/18 03:36:08;;;;;;;84.97;37.58;;;;;;;5.93;88.17;93679.25;5055604;28;20028;-89
2022/03/18 03:41:41;;;;;;;88.43;37.20;;;;;;;5.89;87.97;93676.31;5050051;28;20037;-89
2022/03/18 03:44:39;;;;;;;74.55;35.08;;;;;;;5.91;87.84;93682.06;5050843;28;20041;-89
2022/03/18 03:47:21;;;;;;;84.10;36.20;;;;;;;5.90;87.93;93688.28;5040802;28;20066;-90
2022/03/18 03:50:17;;;;;;;83.75;36.05;;;;;;;6.01;88.08;93702.31;5055603;28;20032;-89
2022/03/18 03:53:16;;;;;;;79.15;37.00;;;;;;;6.01;87.94;93697.94;5034259;28;20055;-89
2022/03/18 03:56:01;;;;;;;81.30;36.73;;;;;;;5.94;88.10;93697.22;5035480;28;20047;-88
2022/03/18 03:59:29;;;;;;;;;;;;;;;;;;;;;
2022/03/18 04:02:03;;;;;;;74.75;35.80;;;;;;;6.15;87.84;93731.47;5034627;28;20555;-89
2022/03/18 04:04:42;;;;;;;82.85;36.88;;;;;;;6.06;88.08;93723.22;5003077;28;20136;-89
2022/03/18 04:10:54;;;;;;;;;;;;;;;;;;;;;
2022/03/18 04:13:45;;;;;;;86.25;37.88;;;;;;;6.23;88.67;93744.13;5054876;28;20090;-89
2022/03/18 04:19:32;;;;;;;84.75;37.60;;;;;;;5.89;88.68;93704.09;5050872;28;20056;-89
2022/03/18 04:22:26;;;;;;;80.65;36.33;;;;;;;5.87;88.91;93706.91;5056528;28;20029;-89
2022/03/18 04:25:22;;;;;;;91.32;38.85;;;;;;;6.15;88.60;93739.28;5030232;28;20452;-88
2022/03/18 04:28:18;;;;;;;86.03;38.42;;;;;;;5.95;88.92;93716.22;5023720;28;20465;-89
2022/03/18 04:31:03;;;;;;;;;;;;;;;;;;;;;
2022/03/18 04:34:28;;;;;;;;;;;;;;;;;;;;;
2022/03/18 04:37:20;;;;;;;78.03;36.47;;;;;;;6.12;88.75;93750.13;5047210;28;20559;-90
2022/03/18 04:40:10;;;;;;;80.43;35.35;;;;;;;6.02;88.65;93743.69;5041490;28;20052;-89
2022/03/18 04:46:36;;;;;;;80.22;36.70;;;;;;;6.28;88.45;93779.84;5022442;28;20044;-89
2022/03/18 04:49:09;;;;;;;87.93;36.72;;;;;;;5.86;88.42;93718.34;5058487;28;20087;-89
2022/03/18 04:52:05;;;;;;;87.63;38.78;;;;;;;5.90;88.53;93721.28;5058393;28;20044;-89
2022/03/18 04:54:54;;;;;;;84.18;38.33;;;;;;;6.14;88.86;93761.09;5038540;28;20032;-89
2022/03/18 04:57:56;;;;;;;87.32;37.83;;;;;;;5.90;88.81;93722.09;5016836;28;20048;-89
2022/03/18 05:01:04;;;;;;;;;;;;;;;;;;;;;
2022/03/18 05:04:06;;;;;;;75.18;36.03;;;;;;;6.04;88.68;93756.47;5076349;28;20033;-89
2022/03/18 05:07:01;;;;;;;;;;;;;;;;;;;;;
2022/03/18 05:09:42;;;;;;;96.53;38.85;;;;;;;5.91;88.89;93731.44;5076101;28;20036;-89
2022/03/18 05:15:21;;;;;;;;;;;;;;;;;;;;;
2022/03/18 05:18:06;;;;;;;96.75;41.70;;;;;;;6.05;88.73;93756.22;5075846;28;20040;-89
2022/03/18 05:20:52;;;;;;;85.15;39.05;;;;;;;5.95;88.79;93750.81;5041052;28;20036;-89
2022/03/18 05:23:33;;;;;;;99.30;40.90;;;;;;;5.86;88.69;93738.34;5058409;28;20048;-90
2022/03/18 05:26:18;;;;;;;93.28;41.03;;;;;;;5.83;89.01;93742.16;5075473;28;20028;-90
2022/03/18 05:29:05;;;;;;;;;;;;;;;;;;;;;
2022/03/18 05:31:49;;;;;;;90.35;39.33;;;;;;;6.12;88.75;93782.09;5075787;28;20103;-89
2022/03/18 05:34:27;;;;;;;91.03;39.95;;;;;;;5.98;89.18;93763.34;5041974;28;20044;-90
2022/03/18 05:37:12;;;;;;;91.57;39.70;;;;;;;6.01;88.84;93775.91;5057538;28;20039;-92
2022/03/18 05:40:28;;;;;;;94.65;39.72;;;;;;;5.84;88.65;93746.38;5037613;28;20037;-90
2022/03/18 05:43:19;;;;;;;91.90;40.33;;;;;;;5.96;88.93;93767.97;5058002;28;20078;-90
2022/03/18 05:46:05;;;;;;;85.50;38.80;;;;;;;5.94;88.82;93771.78;5041767;28;20068;-86
2022/03/18 05:48:31;;;;;;;102.18;42.40;;;;;;;5.97;89.02;93774.78;5058280;28;20048;-86
2022/03/18 05:51:00;;;;;;;102.25;41.63;;;;;;;5.95;89.12;93773.41;5058375;28;20158;-86
2022/03/18 05:53:28;;;;;;;85.28;39.55;;;;;;;5.87;89.54;93755.53;5053246;28;20036;-85
2022/03/18 05:58:39;;;;;;;88.25;39.72;;;;;;;6.30;89.31;93820.19;5074755;28;20039;-86
2022/03/18 06:01:05;;;;;;;92.93;40.10;;;;;;;6.31;89.22;93829.59;5056359;28;20048;-86
2022/03/18 06:03:31;;;;;;;96.43;41.17;;;;;;;6.09;89.01;93792.19;5003753;28;20044;-87
2022/03/18 06:05:57;;;;;;;90.63;40.33;;;;;;;6.33;88.63;93835.38;5019485;28;20779;-84
2022/03/18 06:13:51;;;;;;;90.57;37.45;;;;;;;6.35;88.12;93828.13;5020216;28;20056;-84
2022/03/18 06:16:16;;;;;;;90.97;38.88;;;;;;;6.38;88.16;93840.66;5017357;28;20164;-85
2022/03/18 06:18:42;;;;;;;88.03;38.17;;;;;;;6.40;87.74;93838.63;5026696;28;20116;-85
2022/03/18 06:21:08;;;;;;;83.22;36.90;;;;;;;6.42;87.41;93841.81;5037203;28;20124;-85
2022/03/18 06:23:34;;;;;;;79.00;36.00;;;;;;;6.32;87.19;93825.97;5020634;28;20398;-85
2022/03/18 06:26:01;;;;;;;88.93;37.45;;;;;;;6.38;86.59;93835.47;5054190;28;20037;-85
2022/03/18 06:28:28;;;;;;;82.32;36.92;;;;;;;6.38;85.75;93832.09;5036684;28;20071;-86
2022/03/18 06:30:54;;;;;;;78.63;35.40;;;;;;;6.47;85.53;93843.72;5036721;28;20102;-84
2022/03/18 06:33:19;;;;;;;84.78;37.42;;;;;;;6.46;85.45;93842.94;5020058;28;20526;-85
2022/03/18 06:35:45;;;;;;;83.55;36.67;;;;;;;6.46;84.65;93848.16;5020222;28;20037;-85
2022/03/18 06:38:10;;;;;;;78.97;35.78;;;;;;;6.50;84.43;93852.88;5019654;28;20486;-90
2022/03/18 06:40:36;;;;;;;77.30;35.83;;;;;;;6.15;84.30;93791.28;5051741;28;20493;-85
2022/03/18 06:43:02;;;;;;;74.03;35.38;;;;;;;6.53;84.14;93862.81;5036760;28;20044;-85
2022/03/18 06:45:27;;;;;;;76.90;33.72;;;;;;;6.53;82.74;93863.63;5036060;28;20041;-85
2022/03/18 06:47:53;;;;;;;74.90;33.00;;;;;;;6.44;82.21;93839.00;5036547;28;20037;-85
2022/03/18 06:50:19;;;;;;;70.18;32.63;;;;;;;6.54;79.97;93856.63;5012668;28;20455;-85
2022/03/18 06:52:44;;;;;;;79.85;32.78;;;;;;;6.52;79.53;93858.66;4999570;28;20044;-85
2022/03/18 06:55:10;;;;;;;65.75;30.92;;;;;;;6.58;79.94;93857.75;4983753;28;20164;-86
2022/03/18 06:57:36;;;;;;;68.07;31.33;;;;;;;6.40;79.42;93822.25;5031903;28;20055;-84
2022/03/18 07:00:03;;;;;;;70.00;33.65;;;;;;;6.48;79.89;93876.50;5012803;28;20061;-85
2022/03/18 07:02:29;;;;;;;82.07;33.90;;;;;;;6.44;80.30;93878.00;5053177;28;20038;-85
2022/03/18 07:04:55;;;;;;;85.20;33.65;;;;;;;6.43;80.54;93879.00;5003201;28;20044;-85
2022/03/18 07:07:20;;;;;;;79.63;33.50;;;;;;;6.33;80.78;93866.56;5035828;28;20470;-84
2022/03/18 07:09:46;;;;;;;76.10;35.05;;;;;;;6.34;81.19;93881.16;5035877;28;20091;-85
2022/03/18 07:12:11;;;;;;;82.78;36.33;;;;;;;6.28;81.85;93871.63;5053509;28;20087;-85
2022/03/18 07:14:37;;;;;;;76.72;34.63;;;;;;;5.99;81.79;93829.09;5052890;28;20045;-85
2022/03/18 07:19:48;;;;;;;76.18;33.50;;;;;;;6.30;82.08;93893.00;5053559;28;20029;-85
2022/03/18 07:22:13;;;;;;;83.15;36.47;;;;;;;6.13;82.11;93860.91;5019028;28;20040;-85
2022/03/18 07:24:39;;;;;;;74.85;33.67;;;;;;;6.30;81.01;93894.84;5019490;28;20037;-85
2022/03/18 07:27:05;;;;;;;62.38;29.92;;;;;;;5.94;78.64;93845.38;5003273;28;20086;-87
2022/03/18 07:29:30;;;;;;;58.65;28.00;;;;;;;6.11;76.52;93876.72;5035695;28;20040;-86
2022/03/18 07:31:57;;;;;;;52.65;24.90;;;;;;;6.11;73.54;93896.75;5035939;28;20076;-86
2022/03/18 07:34:22;;;;;;;43.20;20.73;;;;;;;6.03;69.91;93892.63;5035190;28;20048;-85
2022/03/18 07:36:49;;;;;;;40.42;21.75;;;;;;;6.12;70.38;93909.50;5053194;28;20365;-87
2022/03/18 07:39:14;;;;;;;42.45;20.70;;;;;;;6.14;70.83;93907.47;5003081;28;20063;-84
2022/03/18 07:41:40;;;;;;;42.88;21.70;;;;;;;6.16;71.55;93909.84;5018792;28;20037;-85
2022/03/18 07:44:08;;;;;;;40.30;20.40;;;;;;;6.08;71.03;93887.59;5035327;28;20041;-85
2022/03/18 07:46:34;;;;;;;44.40;20.48;;;;;;;6.23;70.44;93915.75;5002119;28;20382;-85
2022/03/18 07:49:01;;;;;;;39.15;19.08;;;;;;;6.21;69.38;93902.16;5035121;28;20494;-85
2022/03/18 07:51:26;;;;;;;36.28;19.42;;;;;;;6.10;67.82;93887.34;5002790;28;20041;-85
2022/03/18 07:53:52;;;;;;;33.05;17.67;;;;;;;6.05;67.59;93888.78;5034541;28;20082;-85
2022/03/18 07:56:18;;;;;;;32.70;17.02;;;;;;;5.99;65.59;93902.72;5018300;28;20033;-85
2022/03/18 07:58:43;;;;;;;30.70;18.15;;;;;;;5.78;66.66;93866.78;5018718;28;20044;-85
2022/03/18 08:01:10;;;;;;;30.30;15.68;;;;;;;6.26;64.76;93910.09;5034716;28;20503;-85
2022/03/18 08:03:36;;;;;;;43.17;18.08;;;;;;;6.15;65.29;93916.88;5052350;28;20068;-85
2022/03/18 08:06:02;;;;;;;35.28;15.75;;;;;;;6.14;65.31;93917.09;5034810;28;20094;-84
2022/03/18 08:08:28;;;;;;;31.10;15.82;;;;;;;6.05;63.31;93924.41;5034801;28;20538;-85
2022/03/18 08:10:54;;;;;;;35.33;16.27;;;;;;;6.09;64.88;93932.56;5002404;28;20159;-85
2022/03/18 08:13:20;;;;;;;31.38;15.70;;;;;;;6.11;62.82;93935.75;5035040;28;20056;-90
2022/03/18 08:15:46;;;;;;;29.30;15.23;;;;;;;6.01;62.23;93921.47;5052270;28;20120;-85
2022/03/18 08:18:12;;;;;;;33.03;15.07;;;;;;;6.09;62.99;93938.56;5035146;28;20112;-85
2022/03/18 08:20:40;;;;;;;32.88;16.52;;;;;;;6.08;63.28;93934.38;5018239;28;20445;-86
2022/03/18 08:23:12;;;;;;;28.58;15.85;;;;;;;5.98;63.16;93914.09;5003036;28;20049;-85
2022/03/18 08:25:38;;;;;;;104.03;20.75;;;;;;;6.13;61.74;93942.28;5018591;28;20037;-85
2022/03/18 08:28:05;;;;;;;34.00;14.68;;;;;;;6.12;62.25;93929.50;5001885;28;20377;-86
2022/03/18 08:30:32;;;;;;;26.17;13.20;;;;;;;6.19;62.12;93935.41;5052560;28;20033;-87
2022/03/18 08:32:57;;;;;;;26.90;13.85;;;;;;;6.14;61.56;93930.09;5052366;28;20095;-85
2022/03/18 08:35:23;;;;;;;22.95;12.30;;;;;;;6.31;59.15;93954.44;5034730;28;20037;-85
2022/03/18 08:37:57;;;;;;;23.20;13.23;;;;;;;6.29;60.08;93951.25;5018245;28;20049;-84
2022/03/18 08:40:23;;;;;;;33.00;13.18;;;;;;;6.32;60.75;93953.41;5020477;28;20128;-85
2022/03/18 08:42:49;;;;;;;24.52;12.20;;;;;;;6.38;60.40;93955.13;5052103;28;20052;-85
2022/03/18 08:45:15;;;;;;;26.35;13.60;;;;;;;6.34;58.33;93953.97;5034850;28;20087;-85
2022/03/18 08:47:42;;;;;;;24.20;11.82;;;;;;;6.36;58.19;93951.94;5034700;28;20445;-85
2022/03/18 08:50:08;;;;;;;22.20;12.25;;;;;;;6.32;58.85;93950.00;5018199;28;20033;-85
2022/03/18 08:52:33;;;;;;;27.42;12.20;;;;;;;6.37;59.12;93953.56;5052170;28;20044;-84
2022/03/18 08:54:59;;;;;;;25.00;12.07;;;;;;;6.38;59.22;93962.91;5017956;28;20578;-85
2022/03/18 08:57:28;;;;;;;19.92;11.43;;;;;;;6.37;58.73;93955.34;5034445;28;20039;-88
2022/03/18 08:59:56;;;;;;;25.63;12.48;;;;;;;6.32;59.32;93944.81;5018054;28;20075;-85
2022/03/18 09:02:21;;;;;;;24.70;12.02;;;;;;;6.32;59.05;93945.59;5051429;28;20048;-86
2022/03/18 09:04:48;;;;;;;33.50;11.95;;;;;;;6.33;58.70;93952.41;5037949;28;20039;-85
2022/03/18 09:07:14;;;;;;;19.88;11.38;;;;;;;6.45;58.03;93970.63;5054132;28;20135;-85
2022/03/18 09:09:40;;;;;;;25.00;11.73;;;;;;;6.41;58.18;93965.06;5021022;28;20036;-85
2022/03/18 09:12:06;;;;;;;20.85;11.63;;;;;;;6.35;59.03;93960.78;5054716;28;20045;-85
2022/03/18 09:14:31;;;;;;;21.55;11.40;;;;;;;6.56;59.33;93979.47;5040352;28;20071;-85
2022/03/18 09:16:57;;;;;;;37.85;12.65;;;;;;;6.52;57.26;93970.53;5075771;28;20041;-85
2022/03/18 09:19:23;;;;;;;26.25;11.25;;;;;;;6.46;57.08;93965.22;5057760;28;20032;-89
2022/03/18 09:21:49;;;;;;;29.73;13.00;;;;;;;6.37;56.31;93966.56;5024648;28;20036;-84
2022/03/18 09:24:15;;;;;;;28.35;11.48;;;;;;;6.58;57.02;93991.22;5057705;28;20044;-86
2022/03/18 09:26:41;;;;;;;20.55;11.45;;;;;;;6.47;56.27;93979.78;5057543;28;20052;-86
2022/03/18 09:29:06;;;;;;;24.52;12.10;;;;;;;6.54;55.83;93990.09;5041188;28;20036;-85
2022/03/18 09:31:32;;;;;;;25.90;11.70;;;;;;;6.45;55.90;93996.63;5041080;28;20056;-85
2022/03/18 09:33:58;;;;;;;24.55;11.48;;;;;;;6.55;56.03;93990.88;5041070;28;20036;-85
2022/03/18 09:36:24;;;;;;;19.73;10.45;;;;;;;6.59;56.65;93992.81;5057082;28;20074;-90
2022/03/18 09:38:50;;;;;;;25.00;11.85;;;;;;;6.56;56.44;93982.06;5057443;28;20025;-85
2022/03/18 09:41:17;;;;;;;20.63;11.73;;;;;;;6.68;55.83;93995.88;5040762;28;20045;-84
2022/03/18 09:43:43;;;;;;;24.65;11.82;;;;;;;6.74;57.26;93992.38;5040725;28;20519;-85
2022/03/18 09:46:11;;;;;;;20.70;11.93;;;;;;;6.59;57.95;93950.38;5024338;28;20040;-85
2022/03/18 09:48:38;;;;;;;19.58;11.13;;;;;;;6.94;57.37;93988.66;5057187;28;20021;-85
2022/03/18 09:51:04;;;;;;;20.98;12.38;;;;;;;6.88;56.85;93967.72;5040601;28;20501;-85
2022/03/18 09:53:29;;;;;;;24.50;12.52;;;;;;;7.06;57.26;93985.03;5040408;28;20119;-85
2022/03/18 09:55:55;;;;;;;25.70;12.98;;;;;;;7.07;57.07;93972.81;5040568;28;20045;-85
2022/03/18 09:58:22;;;;;;;20.73;11.85;;;;;;;7.27;57.26;93988.88;5040467;28;20469;-85
2022/03/18 10:00:50;;;;;;;25.02;13.35;;;;;;;7.25;55.75;93979.69;5041561;28;20126;-85
2022/03/18 10:03:18;;;;;;;20.25;12.00;;;;;;;7.36;56.37;93991.91;5060518;28;20040;-85
2022/03/18 10:06:00;;;;;;;26.27;13.32;;;;;;;7.32;55.80;93961.31;5077257;28;20048;-85
2022/03/18 10:08:47;;;;;;;27.23;14.27;;;;;;;7.46;56.48;93986.91;5059799;28;20031;-85
2022/03/18 10:11:20;;;;;;;22.92;13.45;;;;;;;7.64;56.49;93991.19;5076838;28;20062;-85
2022/03/18 10:13:50;;;;;;;26.30;14.52;;;;;;;7.72;57.75;93988.22;5077341;28;20032;-85
2022/03/18 10:16:33;;;;;;;25.35;14.80;;;;;;;7.65;57.50;93989.34;5077171;28;20028;-86
2022/03/18 10:18:59;;;;;;;27.95;14.38;;;;;;;7.71;56.95;93991.84;5094662;28;20389;-85
2022/03/18 10:21:25;;;;;;;29.73;15.50;;;;;;;7.76;58.03;94000.78;5060210;28;20039;-85
2022/03/18 10:24:10;;;;;;;31.58;15.68;;;;;;;7.89;58.44;93995.31;5060192;28;20040;-85
2022/03/18 10:26:38;;;;;;;31.50;16.65;;;;;;;7.77;56.45;93976.28;5059534;28;20036;-86
2022/03/18 10:29:04;;;;;;;32.03;15.75;;;;;;;8.10;56.54;93991.25;5076600;28;20043;-86
2022/03/18 10:31:31;;;;;;;28.75;15.60;;;;;;;8.09;56.01;93985.25;5059879;28;20040;-85
2022/03/18 10:37:12;;;;;;;26.70;15.57;;;;;;;8.21;56.34;94000.03;5094744;28;20036;-85
2022/03/18 10:39:42;;;;;;;29.80;15.85;;;;;;;8.20;56.11;93990.66;5076681;28;20035;-85
2022/03/18 10:42:10;;;;;;;31.27;16.45;;;;;;;8.30;57.02;93999.44;5076446;28;20040;-85
2022/03/18 10:45:00;;;;;;;26.10;15.05;;;;;;;8.24;55.73;94012.63;5076021;28;20036;-85
2022/03/18 10:47:36;;;;;;;114.25;20.95;;;;;;;8.35;56.77;94009.16;5094447;28;20067;-85
2022/03/18 10:50:11;;;;;;;36.10;15.13;;;;;;;8.34;56.52;93999.75;5059783;28;20037;-85
2022/03/18 10:52:46;;;;;;;22.77;13.23;;;;;;;8.08;53.39;93985.47;5076026;28;20043;-85
2022/03/18 10:55:19;;;;;;;25.08;14.18;;;;;;;8.49;53.20;93989.63;5094521;28;20111;-85
2022/03/18 10:57:54;;;;;;;24.98;13.43;;;;;;;8.76;53.54;93996.84;5075952;28;20093;-85
2022/03/18 11:00:22;;;;;;;36.42;15.07;;;;;;;8.88;53.16;93996.75;5094664;28;20044;-85
2022/03/18 11:02:49;;;;;;;26.25;15.15;;;;;;;8.57;53.37;93991.03;5079538;28;20052;-86
2022/03/18 11:05:20;;;;;;;35.40;16.50;;;;;;;8.56;55.95;93989.47;5055704;28;20039;-85
2022/03/18 11:07:47;;;;;;;34.58;15.15;;;;;;;8.42;54.97;93988.16;5036182;28;20041;-85
2022/03/18 11:13:02;;;;;;;26.58;15.40;;;;;;;8.42;56.11;93977.72;5073769;28;20055;-85
2022/03/18 11:15:30;;;;;;;27.70;16.30;;;;;;;8.31;56.40;93985.38;5055599;28;20115;-85
2022/03/18 11:18:03;;;;;;;31.85;16.05;;;;;;;8.53;55.60;93997.75;5073184;28;20029;-85
2022/03/18 11:20:32;;;;;;;28.27;15.15;;;;;;;8.47;54.59;94002.09;5055814;28;20032;-85
2022/03/18 11:22:58;;;;;;;26.63;15.07;;;;;;;7.97;55.00;93997.56;5072557;28;20041;-85
2022/03/18 11:25:25;;;;;;;29.17;14.07;;;;;;;7.87;55.48;93979.09;5055002;28;20036;-85
2022/03/18 11:27:53;;;;;;;30.23;15.40;;;;;;;8.03;54.68;93988.00;5055174;28;20036;-84
2022/03/18 11:30:47;;;;;;;29.67;14.85;;;;;;;8.10;54.55;93992.03;5055495;28;20040;-85
2022/03/18 11:33:15;;;;;;;27.10;14.48;;;;;;;8.17;54.82;93981.44;5052551;28;20044;-84
2022/03/18 11:35:50;;;;;;;27.20;15.43;;;;;;;7.98;54.69;93967.81;5055025;28;20029;-87
2022/03/18 11:38:17;;;;;;;26.98;15.10;;;;;;;8.28;54.66;93982.44;5073283;28;20033;-85
2022/03/18 11:41:00;;;;;;;27.45;14.65;;;;;;;8.24;54.74;93987.34;5072885;28;20127;-86
2022/03/18 11:43:33;;;;;;;29.30;15.15;;;;;;;8.10;54.35;93960.72;5055222;28;20036;-85
2022/03/18 11:46:17;;;;;;;28.27;14.48;;;;;;;8.20;55.27;93975.00;5036678;28;20033;-85
2022/03/18 11:48:50;;;;;;;28.13;15.40;;;;;;;8.26;55.33;93974.03;5072153;28;20040;-86
2022/03/18 11:51:32;;;;;;;30.80;15.13;;;;;;;8.38;54.56;93981.84;5054319;28;20104;-86
2022/03/18 11:54:03;;;;;;;25.58;14.55;;;;;;;8.31;53.73;93979.38;5034385;28;20475;-86
2022/03/18 11:56:48;;;;;;;28.40;15.02;;;;;;;7.77;55.54;93987.53;5048130;28;20028;-85
2022/03/18 11:59:29;;;;;;;27.83;15.10;;;;;;;7.97;55.98;93987.13;5067501;28;20399;-86
2022/03/18 12:02:09;;;;;;;30.58;14.82;;;;;;;7.99;55.67;93974.63;5013914;28;20041;-86
2022/03/18 12:04:39;;;;;;;35.53;16.35;;;;;;;8.37;54.91;93975.78;5033373;28;20033;-86
2022/03/18 12:07:30;;;;;;;29.00;15.65;;;;;;;8.32;55.13;93983.53;5049519;28;20049;-86
2022/03/18 12:10:00;;;;;;;35.83;16.88;;;;;;;8.26;54.48;93929.69;5033068;28;20051;-86
2022/03/18 12:12:28;;;;;;;40.15;18.17;;;;;;;8.79;54.72;93977.28;5033366;28;20025;-87
2022/03/18 12:14:56;;;;;;;34.33;16.88;;;;;;;8.93;53.96;93978.53;5033156;28;20048;-87
2022/03/18 12:17:23;;;;;;;34.17;17.42;;;;;;;8.84;53.59;93980.75;5034269;28;20061;-86
2022/03/18 12:19:53;;;;;;;36.78;17.77;;;;;;;8.78;54.26;93983.53;5053047;28;20040;-86
2022/03/18 12:22:20;;;;;;;40.17;18.00;;;;;;;8.69;54.97;93968.28;5051899;28;20063;-85
2022/03/18 12:24:55;;;;;;;31.27;16.95;;;;;;;8.31;53.18;93924.56;5017584;28;20037;-85
2022/03/18 12:27:26;;;;;;;33.88;16.10;;;;;;;8.38;54.02;93951.31;5034935;28;20037;-85
2022/03/18 12:30:05;;;;;;;34.55;17.08;;;;;;;8.36;55.74;93963.00;5018729;28;20052;-86
2022/03/18 12:32:31;;;;;;;58.60;19.88;;;;;;;8.62;54.57;93974.66;5052525;28;20064;-85
2022/03/18 12:34:58;;;;;;;34.38;16.65;;;;;;;8.50;53.38;93965.09;5018062;28;20060;-84
2022/03/18 12:37:30;;;;;;;24.63;14.57;;;;;;;8.30;52.90;93959.50;5018145;28;20040;-85
2022/03/18 12:40:12;;;;;;;26.35;13.65;;;;;;;8.02;53.69;93962.94;5035665;28;20127;-88
2022/03/18 12:42:58;;;;;;;29.77;16.00;;;;;;;7.90;54.20;93960.38;5034678;28;20033;-87
2022/03/18 12:45:24;;;;;;;24.17;14.15;;;;;;;8.02;53.71;93973.38;5034266;28;20091;-85
2022/03/18 12:47:52;;;;;;;29.85;14.82;;;;;;;8.04;54.04;93956.47;5051349;28;20428;-85
2022/03/18 12:50:18;;;;;;;25.63;13.70;;;;;;;8.01;52.95;93945.69;5056540;28;20064;-85
2022/03/18 12:52:44;;;;;;;32.83;14.73;;;;;;;8.31;53.46;93953.28;5021636;28;20493;-85
2022/03/18 12:55:12;;;;;;;31.25;15.55;;;;;;;8.06;53.80;93957.03;5054835;28;20068;-84
2022/03/18 12:57:43;;;;;;;28.20;15.18;;;;;;;8.10;53.48;93954.72;5054896;28;20125;-85
2022/03/18 13:00:12;;;;;;;28.25;15.48;;;;;;;8.31;52.82;93946.22;5001800;28;20049;-85
2022/03/18 13:02:41;;;;;;;26.25;13.75;;;;;;;8.40;52.45;93936.22;5063014;28;20366;-86
2022/03/18 13:05:08;;;;;;;31.02;14.93;;;;;;;8.60;51.63;93958.44;5037458;28;20123;-86
2022/03/18 13:07:34;;;;;;;28.42;16.02;;;;;;;8.32;51.95;93949.63;5038162;28;20033;-84
2022/03/18 13:10:03;;;;;;;30.85;15.52;;;;;;;8.89;51.60;93946.91;5037882;28;20106;-85
2022/03/18 13:12:31;;;;;;;28.70;15.52;;;;;;;9.14;51.00;93933.41;5021822;28;20385;-85
2022/03/18 13:14:58;;;;;;;27.27;15.90;;;;;;;9.13;50.64;93949.31;5037499;28;20128;-84
2022/03/18 13:17:30;;;;;;;28.98;14.60;;;;;;;8.72;50.21;93930.44;5038188;28;20025;-85
2022/03/18 13:19:56;;;;;;;27.33;15.75;;;;;;;9.09;51.22;93950.81;5037648;28;20478;-85
2022/03/18 13:22:23;;;;;;;28.48;16.33;;;;;;;8.93;51.48;93945.38;5021205;28;20509;-85
2022/03/18 13:24:54;;;;;;;30.33;14.48;;;;;;;8.73;50.88;93942.47;5055810;28;20063;-85
2022/03/18 13:27:21;;;;;;;32.78;16.00;;;;;;;8.92;50.91;93949.03;5055906;28;20125;-85